Time;durP1;ratioP1;P1;durP2;ratioP2;P2;SDS_P1;SDS_P2;PMS_P1;PMS_P2;Temp;Humidity;BMP_temperature;BMP_pressure;BME280_temperature;BME280_humidity;BME280_pressure;Samples;Min_cycle;Max_cycle;Signal;HPM_P1;HPM_P2
2022/06/29 00:00:28;;;;;;;16.90;14.25;;;;;;;28.33;93.68;100750.82;1719941;82;21024;-71
2022/06/29 00:02:56;;;;;;;18.23;14.58;;;;;;;28.15;94.98;100751.12;1720482;82;20989;-71
2022/06/29 00:05:26;;;;;;;20.35;15.88;;;;;;;27.95;96.66;100756.56;1721515;82;20991;-71
2022/06/29 00:07:54;;;;;;;19.67;15.65;;;;;;;27.99;96.10;100755.72;1719336;82;21539;-71
2022/06/29 00:10:22;;;;;;;18.27;15.70;;;;;;;28.00;96.43;100756.03;1720883;82;21036;-70
2022/06/29 00:12:51;;;;;;;22.95;15.75;;;;;;;27.96;96.45;100759.52;1719785;82;21039;-71
2022/06/29 00:15:21;;;;;;;21.90;16.50;;;;;;;27.91;97.33;100757.91;1721986;82;21076;-71
2022/06/29 00:17:48;;;;;;;23.18;16.57;;;;;;;28.78;95.12;100757.56;1721590;82;21078;-70
2022/06/29 00:20:16;;;;;;;24.32;16.97;;;;;;;29.19;90.73;100755.81;1720599;82;21039;-70
2022/06/29 00:22:45;;;;;;;28.17;19.57;;;;;;;28.55;91.43;100753.15;1721978;82;21594;-71
2022/06/29 00:25:14;;;;;;;24.67;19.40;;;;;;;28.46;89.87;100754.18;1722834;82;21031;-71
2022/06/29 00:27:43;;;;;;;25.50;19.95;;;;;;;31.34;76.83;100757.56;1723597;82;21023;-70
2022/06/29 00:30:13;;;;;;;25.75;19.10;;;;;;;28.44;87.96;100764.12;1721265;82;21538;-71
2022/06/29 00:32:41;;;;;;;23.87;19.37;;;;;;;28.12;94.41;100757.27;1722955;82;21043;-70
2022/06/29 00:35:09;;;;;;;23.62;19.48;;;;;;;29.85;86.81;100756.33;1722500;82;21036;-71
2022/06/29 00:37:37;;;;;;;24.43;19.15;;;;;;;29.01;89.85;100758.80;1722694;82;21047;-71
2022/06/29 00:40:06;;;;;;;28.38;19.40;;;;;;;29.07;87.16;100766.02;1720733;82;21058;-71
2022/06/29 00:42:34;;;;;;;26.10;19.80;;;;;;;28.13;94.17;100765.03;1719919;82;21593;-71
2022/06/29 00:45:01;;;;;;;26.23;19.15;;;;;;;28.02;96.13;100765.46;1723795;82;21119;-70
2022/06/29 00:47:29;;;;;;;23.22;18.50;;;;;;;27.96;97.83;100758.20;1722252;82;21498;-70
2022/06/29 00:49:56;;;;;;;24.00;19.25;;;;;;;28.03;96.57;100764.45;1719232;82;21047;-70
2022/06/29 00:52:26;;;;;;;25.48;19.27;;;;;;;27.89;98.98;100765.20;1717633;82;21103;-70
2022/06/29 00:55:09;;;;;;;24.23;18.62;;;;;;;27.90;99.52;100764.19;1718076;82;21018;-70
2022/06/29 00:57:38;;;;;;;23.38;18.23;;;;;;;30.86;87.49;100764.97;1723069;81;21067;-70
2022/06/29 01:00:08;;;;;;;21.93;17.52;;;;;;;31.67;78.24;100777.68;1724009;81;21071;-71
2022/06/29 01:02:35;;;;;;;22.35;16.97;;;;;;;29.31;82.24;100774.74;1723691;82;21044;-70
2022/06/29 01:05:05;;;;;;;24.92;18.23;;;;;;;31.57;78.28;100776.40;1722376;82;21046;-70
2022/06/29 01:07:34;;;;;;;24.05;17.23;;;;;;;29.38;82.11;100778.80;1722026;82;21067;-71
2022/06/29 01:10:02;;;;;;;24.87;18.60;;;;;;;31.42;79.47;100768.02;1721010;82;21547;-71
2022/06/29 01:12:31;;;;;;;25.65;18.50;;;;;;;31.81;75.16;100766.53;1718688;82;21084;-71
2022/06/29 01:14:58;;;;;;;21.15;17.75;;;;;;;31.50;75.67;100767.88;1725226;83;21523;-71
2022/06/29 01:17:26;;;;;;;21.57;18.15;;;;;;;31.81;74.17;100762.54;1721790;82;21028;-70
2022/06/29 01:19:54;;;;;;;23.45;17.05;;;;;;;30.75;76.01;100766.83;1722487;82;21042;-70
2022/06/29 01:22:24;;;;;;;21.60;17.02;;;;;;;30.81;76.46;100767.38;1720755;82;21103;-70
2022/06/29 01:24:52;;;;;;;21.80;17.15;;;;;;;31.25;75.18;100772.87;1718414;82;21055;-70
2022/06/29 01:27:20;;;;;;;20.65;17.15;;;;;;;31.33;75.06;100775.36;1720998;82;21056;-71
2022/06/29 01:29:49;;;;;;;20.62;17.00;;;;;;;31.29;76.87;100776.78;1723330;82;21120;-70
2022/06/29 01:32:20;;;;;;;19.73;17.62;;;;;;;31.74;74.62;100770.52;1720001;82;21072;-71
2022/06/29 01:34:47;;;;;;;24.00;18.20;;;;;;;31.56;73.83;100777.44;1720903;82;21522;-70
2022/06/29 01:37:15;;;;;;;23.05;17.95;;;;;;;31.64;73.88;100777.25;1722382;82;21051;-70
2022/06/29 01:39:42;;;;;;;21.82;18.07;;;;;;;30.85;74.88;100774.45;1719265;83;21605;-70
2022/06/29 01:42:12;;;;;;;22.75;18.80;;;;;;;31.51;73.17;100778.04;1717093;82;21027;-71
2022/06/29 01:44:40;;;;;;;29.10;20.55;;;;;;;31.52;74.39;100773.02;1719739;83;21022;-70
2022/06/29 01:47:07;;;;;;;26.42;21.15;;;;;;;31.19;76.34;100771.52;1722083;82;21027;-70
2022/06/29 01:49:35;;;;;;;26.68;19.23;;;;;;;30.98;77.32;100780.38;1723412;82;21091;-70
2022/06/29 01:52:03;;;;;;;22.40;19.23;;;;;;;31.07;77.63;100779.23;1722370;82;21035;-70
2022/06/29 01:54:31;;;;;;;25.43;20.30;;;;;;;31.01;79.33;100776.84;1718531;82;21039;-70
2022/06/29 01:56:58;;;;;;;21.85;19.35;;;;;;;30.65;79.53;100780.45;1720357;82;21062;-70
2022/06/29 01:59:26;;;;;;;23.60;19.73;;;;;;;32.02;74.89;100780.24;1719201;82;21031;-70
2022/06/29 02:01:54;;;;;;;25.68;20.40;;;;;;;32.17;72.65;100784.56;1720095;82;21052;-71
2022/06/29 02:04:21;;;;;;;22.93;20.12;;;;;;;32.07;72.93;100784.95;1720789;82;21044;-71
2022/06/29 02:06:48;;;;;;;26.90;21.57;;;;;;;32.09;72.89;100780.24;1721548;82;21093;-70
2022/06/29 02:09:15;;;;;;;27.80;21.55;;;;;;;32.14;72.92;100780.47;1720961;82;21531;-70
2022/06/29 02:11:42;;;;;;;23.55;20.43;;;;;;;32.22;72.49;100777.61;1722449;82;21074;-71
2022/06/29 02:14:10;;;;;;;24.45;20.88;;;;;;;32.37;71.52;100780.58;1719202;82;21586;-71
2022/06/29 02:16:38;;;;;;;25.17;21.68;;;;;;;32.24;72.00;100776.05;1719214;82;21015;-70
2022/06/29 02:19:06;;;;;;;26.05;20.65;;;;;;;32.47;71.32;100771.14;1722257;82;21012;-71
2022/06/29 02:21:33;;;;;;;22.17;19.77;;;;;;;32.21;71.79;100773.80;1723692;82;21042;-70
2022/06/29 02:24:00;;;;;;;24.85;20.40;;;;;;;32.42;70.68;100768.29;1722997;82;21566;-70
2022/06/29 02:26:27;;;;;;;23.42;19.60;;;;;;;32.32;71.08;100768.69;1722311;82;21011;-70
2022/06/29 02:28:55;;;;;;;22.37;19.10;;;;;;;32.34;70.58;100769.80;1721528;82;21044;-70
2022/06/29 02:36:53;;;;;;;22.20;18.98;;;;;;;32.44;70.01;100762.73;1719604;82;21075;-70
2022/06/29 02:39:20;;;;;;;24.63;18.98;;;;;;;32.27;70.38;100765.00;1717576;83;21537;-70
2022/06/29 02:41:47;;;;;;;23.38;19.12;;;;;;;29.97;83.97;100770.75;1721388;82;21500;-70
2022/06/29 02:44:14;;;;;;;22.27;19.35;;;;;;;29.32;83.15;100762.63;1723796;82;21051;-70
2022/06/29 02:46:41;;;;;;;28.02;20.05;;;;;;;28.92;90.29;100771.33;1722770;82;21107;-70
2022/06/29 02:49:09;;;;;;;23.02;20.52;;;;;;;28.88;92.96;100770.55;1719325;82;21078;-71
2022/06/29 02:51:36;;;;;;;25.17;19.82;;;;;;;28.98;94.58;100772.95;1722207;82;21199;-71
2022/06/29 02:54:03;;;;;;;24.75;21.02;;;;;;;28.88;95.33;100775.86;1723322;82;21412;-70
2022/06/29 02:56:31;;;;;;;23.45;19.57;;;;;;;29.03;94.85;100779.83;1718748;82;21063;-70
2022/06/29 02:58:58;;;;;;;24.75;20.52;;;;;;;31.48;86.67;100781.08;1721100;82;21039;-70
2022/06/29 03:01:26;;;;;;;22.27;19.65;;;;;;;32.49;74.59;100783.75;1723874;82;21083;-70
2022/06/29 03:03:53;;;;;;;22.30;18.65;;;;;;;32.39;73.95;100787.34;1720719;82;21025;-70
2022/06/29 03:06:20;;;;;;;27.82;19.32;;;;;;;32.23;74.02;100789.08;1719260;82;21540;-70
2022/06/29 03:08:47;;;;;;;24.20;18.32;;;;;;;32.00;73.62;100782.81;1716383;82;21039;-70
2022/06/29 03:11:17;;;;;;;24.15;18.52;;;;;;;32.30;72.38;100793.88;1720178;82;21015;-70
2022/06/29 03:13:44;;;;;;;24.63;18.75;;;;;;;31.85;73.44;100787.73;1721518;82;21071;-69
2022/06/29 03:16:11;;;;;;;27.30;20.02;;;;;;;32.08;72.76;100789.27;1720950;82;21050;-70
2022/06/29 03:18:39;;;;;;;23.02;19.30;;;;;;;31.95;72.87;100783.36;1716932;82;20999;-69
2022/06/29 03:21:07;;;;;;;26.35;20.23;;;;;;;32.27;72.52;100784.45;1717696;83;21089;-70
2022/06/29 03:23:34;;;;;;;23.20;20.72;;;;;;;31.96;73.33;100788.20;1721425;82;21067;-70
2022/06/29 03:26:01;;;;;;;24.63;19.40;;;;;;;31.73;73.70;100795.52;1724009;82;21196;-70
2022/06/29 03:28:29;;;;;;;25.37;21.07;;;;;;;31.87;74.23;100789.69;1721854;82;21535;-70
2022/06/29 03:30:56;;;;;;;24.70;19.52;;;;;;;31.96;72.92;100792.19;1720079;82;21038;-69
2022/06/29 03:33:25;;;;;;;28.00;19.15;;;;;;;31.61;74.47;100798.92;1721229;83;21067;-69
2022/06/29 03:35:52;;;;;;;22.30;18.75;;;;;;;31.64;76.76;100796.70;1723297;82;21051;-70
2022/06/29 03:38:19;;;;;;;23.10;19.30;;;;;;;31.88;74.12;100798.00;1721694;82;21039;-69
2022/06/29 03:40:47;;;;;;;21.80;19.50;;;;;;;31.88;74.26;100798.00;1720175;82;21491;-69
2022/06/29 03:43:14;;;;;;;22.75;18.73;;;;;;;32.07;73.61;100788.95;1720117;82;21109;-70
2022/06/29 03:45:43;;;;;;;23.95;19.90;;;;;;;32.18;73.26;100784.85;1722479;82;21534;-69
2022/06/29 03:48:11;;;;;;;23.47;20.40;;;;;;;32.16;72.91;100786.41;1721747;82;21016;-69
2022/06/29 03:50:38;;;;;;;23.45;20.00;;;;;;;32.16;72.91;100789.56;1723022;82;21035;-69
2022/06/29 03:53:06;;;;;;;25.00;19.85;;;;;;;32.12;72.31;100789.98;1718821;82;21671;-69
2022/06/29 03:55:33;;;;;;;29.18;20.52;;;;;;;32.41;71.28;100795.94;1718694;82;21048;-69
2022/06/29 03:58:00;;;;;;;22.55;19.73;;;;;;;32.37;71.66;100800.05;1720393;83;21492;-69
2022/06/29 04:00:28;;;;;;;25.15;20.02;;;;;;;32.27;71.41;100795.11;1723073;82;21088;-69
2022/06/29 04:02:55;;;;;;;27.50;20.97;;;;;;;32.13;72.42;100792.94;1724727;82;21008;-69
2022/06/29 04:05:23;;;;;;;24.77;20.10;;;;;;;32.13;72.42;100792.94;1722855;82;21054;-69
2022/06/29 04:07:50;;;;;;;23.80;19.82;;;;;;;32.05;71.57;100785.14;1723041;82;21548;-69
2022/06/29 04:10:18;;;;;;;22.60;19.67;;;;;;;32.43;70.93;100787.23;1720885;82;21558;-69
2022/06/29 04:12:45;;;;;;;25.52;20.23;;;;;;;32.38;70.81;100799.00;1719846;82;21044;-69
2022/06/29 04:15:12;;;;;;;21.77;19.27;;;;;;;32.37;70.08;100805.38;1720088;82;21019;-70
2022/06/29 04:17:41;;;;;;;27.02;20.12;;;;;;;32.59;70.06;100806.02;1719826;82;21066;-70
2022/06/29 04:21:05;;;;;;;24.87;20.25;;;;;;;32.35;69.98;100816.75;1719021;82;21542;-70
2022/06/29 04:22:39;;;;;;;24.92;20.50;;;;;;;32.54;69.35;100811.10;1729912;81;21083;-70
2022/06/29 04:25:07;;;;;;;22.60;19.35;;;;;;;32.50;68.44;100801.39;1722958;82;21089;-69
2022/06/29 04:27:33;;;;;;;22.52;20.08;;;;;;;32.60;69.10;100816.97;1720146;82;21262;-69
2022/06/29 04:30:01;;;;;;;24.00;19.80;;;;;;;32.44;69.03;100824.86;1720278;82;21079;-69
2022/06/29 04:32:28;;;;;;;29.07;20.12;;;;;;;32.63;68.72;100831.76;1721704;82;21036;-70
2022/06/29 04:34:55;;;;;;;26.77;21.55;;;;;;;32.60;68.83;100830.30;1722646;82;21074;-69
2022/06/29 04:37:23;;;;;;;27.27;21.70;;;;;;;32.70;68.43;100831.23;1719511;82;21059;-70
2022/06/29 04:39:50;;;;;;;25.70;21.05;;;;;;;32.09;69.84;100831.66;1721614;82;21149;-69
2022/06/29 04:42:17;;;;;;;25.82;21.33;;;;;;;32.31;69.48;100834.97;1719164;82;21031;-70
2022/06/29 04:44:44;;;;;;;26.62;21.40;;;;;;;32.47;68.47;100840.95;1718726;82;21046;-69
2022/06/29 04:47:11;;;;;;;24.55;21.35;;;;;;;32.65;68.29;100837.70;1720648;83;21083;-70
2022/06/29 04:49:39;;;;;;;32.55;22.07;;;;;;;32.48;68.41;100841.23;1718687;82;21539;-70
2022/06/29 04:52:06;;;;;;;27.42;21.23;;;;;;;32.49;68.87;100838.89;1719556;82;21187;-69
2022/06/29 04:54:34;;;;;;;24.55;20.85;;;;;;;32.35;68.68;100843.39;1720625;82;21035;-69
2022/06/29 04:57:01;;;;;;;25.52;21.52;;;;;;;32.35;69.31;100840.72;1723665;82;21114;-70
2022/06/29 04:59:28;;;;;;;26.07;21.50;;;;;;;31.65;71.35;100846.25;1723534;82;21047;-70
2022/06/29 05:01:55;;;;;;;26.55;21.50;;;;;;;31.63;71.12;100851.44;1756785;81;21063;-69
2022/06/29 05:04:23;;;;;;;25.52;21.10;;;;;;;32.53;69.26;100848.94;1714979;82;21160;-69
2022/06/29 05:06:51;;;;;;;23.22;20.80;;;;;;;32.70;68.83;100845.89;1720667;82;21051;-69
2022/06/29 05:09:19;;;;;;;27.15;22.25;;;;;;;32.73;68.55;100855.63;1718670;82;21522;-70
2022/06/29 05:11:46;;;;;;;23.62;21.07;;;;;;;32.69;68.56;100854.41;1720566;82;21027;-69
2022/06/29 05:14:15;;;;;;;23.47;21.00;;;;;;;33.03;67.89;100850.36;1721782;82;21089;-70
2022/06/29 05:16:42;;;;;;;23.73;21.17;;;;;;;33.04;67.24;100854.16;1720335;82;21098;-69
2022/06/29 05:19:09;;;;;;;27.70;21.17;;;;;;;32.82;67.87;100855.42;1719861;82;21493;-69
2022/06/29 05:21:37;;;;;;;24.92;22.22;;;;;;;33.23;66.99;100851.17;1719221;82;21445;-69
2022/06/29 05:24:06;;;;;;;22.95;20.57;;;;;;;32.66;67.08;100857.98;1720713;82;21072;-70
2022/06/29 05:26:33;;;;;;;24.37;21.27;;;;;;;33.43;66.80;100857.79;1718091;82;21041;-69
2022/06/29 05:29:00;;;;;;;24.65;20.65;;;;;;;33.14;66.99;100860.44;1718455;82;21632;-70
2022/06/29 05:31:29;;;;;;;27.75;21.37;;;;;;;33.38;66.48;100858.95;1717788;83;21085;-69
2022/06/29 05:33:56;;;;;;;26.15;21.40;;;;;;;33.21;66.97;100857.75;1722061;82;21036;-69
2022/06/29 05:36:23;;;;;;;25.45;20.35;;;;;;;33.53;65.92;100863.50;1720131;83;21499;-69
2022/06/29 05:38:50;;;;;;;27.42;21.52;;;;;;;33.75;65.16;100860.58;1718078;82;21032;-69
2022/06/29 05:41:18;;;;;;;23.02;20.50;;;;;;;33.47;65.45;100868.88;1717580;82;21078;-69
2022/06/29 05:43:49;;;;;;;27.62;21.05;;;;;;;32.73;68.94;100870.30;1719545;82;21086;-70
2022/06/29 05:46:14;;;;;;;27.70;22.48;;;;;;;33.83;65.16;100857.67;1720647;81;21518;-69
2022/06/29 05:48:41;;;;;;;28.95;20.95;;;;;;;33.82;65.31;100857.87;1721179;82;21012;-69
2022/06/29 05:51:08;;;;;;;25.15;21.48;;;;;;;33.95;64.60;100855.14;1722913;82;21031;-69
2022/06/29 05:53:37;;;;;;;24.25;20.90;;;;;;;34.04;63.77;100853.84;1723292;82;21015;-69
2022/06/29 05:56:04;;;;;;;24.25;21.60;;;;;;;34.04;63.86;100844.49;1726439;82;21026;-69
2022/06/29 05:58:31;;;;;;;25.15;21.93;;;;;;;34.04;63.87;100843.69;1719077;83;21051;-69
2022/06/29 06:01:00;;;;;;;27.25;20.60;;;;;;;34.26;63.92;100845.53;1721396;82;21072;-69
2022/06/29 06:03:27;;;;;;;27.85;21.02;;;;;;;34.27;63.80;100845.32;1721227;82;21036;-70
2022/06/29 06:05:54;;;;;;;28.87;22.00;;;;;;;33.96;64.78;100846.09;1721334;82;21053;-70
2022/06/29 06:08:21;;;;;;;26.80;21.65;;;;;;;34.29;64.49;100845.92;1721542;82;21011;-70
2022/06/29 06:10:49;;;;;;;22.85;20.43;;;;;;;34.50;64.07;100836.70;1720527;82;21086;-69
2022/06/29 06:13:17;;;;;;;26.07;21.23;;;;;;;34.65;63.12;100849.80;1719028;82;21052;-69
2022/06/29 06:15:44;;;;;;;24.50;20.80;;;;;;;34.95;62.57;100845.61;1722714;82;21194;-69
2022/06/29 06:18:11;;;;;;;23.65;20.88;;;;;;;35.15;62.52;100848.92;1724549;82;21064;-69
2022/06/29 06:20:38;;;;;;;21.45;19.12;;;;;;;35.19;62.89;100840.75;1718922;82;21071;-69
2022/06/29 06:23:08;;;;;;;26.62;18.67;;;;;;;35.37;60.83;100847.16;1719412;82;21114;-69
2022/06/29 06:25:35;;;;;;;26.05;19.50;;;;;;;35.62;59.68;100851.87;1723697;82;21138;-69
2022/06/29 06:28:05;;;;;;;22.05;19.02;;;;;;;35.48;60.76;100852.58;1720707;82;21075;-68
2022/06/29 06:30:33;;;;;;;22.55;19.73;;;;;;;34.96;61.52;100855.25;1718325;82;20999;-69
2022/06/29 06:33:00;;;;;;;22.48;19.85;;;;;;;34.98;61.05;100858.03;1720931;82;21580;-69
2022/06/29 06:35:27;;;;;;;24.12;20.00;;;;;;;35.15;60.52;100854.77;1724552;82;21028;-70
2022/06/29 06:37:55;;;;;;;22.20;19.80;;;;;;;34.80;60.92;100855.33;1723655;82;21515;-69
2022/06/29 06:43:08;;;;;;;21.75;19.50;;;;;;;35.43;60.28;100856.97;1723239;82;21083;-70
2022/06/29 06:45:35;;;;;;;21.70;19.27;;;;;;;35.70;59.91;100852.92;1723435;83;21023;-70
2022/06/29 06:48:05;;;;;;;22.37;18.70;;;;;;;35.57;58.56;100857.63;1719504;82;21064;-68
2022/06/29 06:50:33;;;;;;;22.00;18.48;;;;;;;35.72;58.35;100853.23;1720718;82;21023;-68
2022/06/29 06:53:02;;;;;;;22.77;18.30;;;;;;;35.56;58.14;100858.13;1726373;82;21080;-68
2022/06/29 06:55:30;;;;;;;21.42;18.32;;;;;;;35.91;58.26;100853.50;1721978;82;21036;-68
2022/06/29 06:57:57;;;;;;;22.37;18.27;;;;;;;36.12;57.68;100862.88;1717846;82;21028;-69
2022/06/29 07:00:24;;;;;;;23.83;17.73;;;;;;;35.77;57.80;100859.55;1720536;82;21047;-69
2022/06/29 07:02:51;;;;;;;23.92;18.10;;;;;;;35.30;59.08;100860.09;1719966;82;21042;-68
2022/06/29 07:05:19;;;;;;;20.97;18.15;;;;;;;35.51;58.76;100864.69;1721947;82;21539;-69
2022/06/29 07:07:47;;;;;;;23.85;17.48;;;;;;;35.57;59.18;100865.66;1716891;82;21105;-70
2022/06/29 07:10:14;;;;;;;23.98;16.70;;;;;;;35.57;59.75;100873.16;1721974;82;21097;-70
2022/06/29 07:12:42;;;;;;;19.82;17.45;;;;;;;36.31;57.47;100863.64;1728512;82;21016;-70
2022/06/29 07:15:11;;;;;;;18.70;16.82;;;;;;;36.03;57.92;100868.25;1737763;82;21178;-70
2022/06/29 07:17:38;;;;;;;21.42;16.85;;;;;;;36.10;57.04;100865.78;1730347;81;20997;-70
2022/06/29 07:20:08;;;;;;;23.02;18.05;;;;;;;36.15;55.75;100864.30;1730929;81;20973;-70
2022/06/29 07:22:35;;;;;;;19.65;17.12;;;;;;;34.19;59.33;100859.47;1743987;81;21056;-71
2022/06/29 07:25:04;;;;;;;19.77;15.83;;;;;;;34.52;58.41;100865.38;1733513;82;21011;-68
2022/06/29 07:27:32;;;;;;;23.02;17.20;;;;;;;34.51;59.87;100860.23;1726412;82;21478;-68
2022/06/29 07:29:59;;;;;;;19.60;16.23;;;;;;;34.57;59.89;100863.91;1727477;82;21025;-68
2022/06/29 07:32:26;;;;;;;17.00;14.95;;;;;;;34.63;59.67;100864.36;1727436;82;21044;-68
2022/06/29 07:34:53;;;;;;;18.35;14.25;;;;;;;34.98;57.97;100865.21;1728330;82;21518;-68
2022/06/29 07:37:20;;;;;;;18.20;15.28;;;;;;;35.70;55.16;100858.81;1736490;82;21052;-68
2022/06/29 07:39:48;;;;;;;15.70;13.40;;;;;;;37.60;53.78;100860.16;1717645;82;21080;-68
2022/06/29 07:42:15;;;;;;;27.60;14.80;;;;;;;37.65;50.15;100866.98;1727313;82;21107;-69
2022/06/29 07:44:42;;;;;;;20.25;12.78;;;;;;;37.75;51.40;100860.16;1722378;82;21511;-69
2022/06/29 07:47:09;;;;;;;15.05;13.00;;;;;;;38.04;48.91;100865.81;1729547;82;21405;-69
2022/06/29 07:49:37;;;;;;;13.15;11.78;;;;;;;37.82;50.30;100863.53;1724675;82;21134;-69
2022/06/29 07:52:06;;;;;;;14.68;12.00;;;;;;;37.68;49.27;100866.49;1728399;82;21535;-69
2022/06/29 07:54:34;;;;;;;16.42;12.23;;;;;;;37.99;48.15;100858.99;1728669;82;21018;-69
2022/06/29 07:57:02;;;;;;;17.15;12.95;;;;;;;37.51;48.22;100859.39;1728933;82;21489;-69
2022/06/29 07:59:29;;;;;;;13.43;11.05;;;;;;;37.91;48.62;100858.58;1726005;82;20985;-69
2022/06/29 08:01:56;;;;;;;14.07;11.25;;;;;;;38.20;46.64;100862.06;1735363;82;21017;-69
2022/06/29 08:04:23;;;;;;;15.40;10.68;;;;;;;37.68;47.28;100858.44;1728046;82;21019;-69
2022/06/29 08:06:50;;;;;;;13.58;11.30;;;;;;;38.22;45.63;100855.91;1733429;82;21519;-70
2022/06/29 08:09:17;;;;;;;12.23;10.65;;;;;;;38.03;44.95;100853.95;1733151;82;21543;-69
2022/06/29 08:11:45;;;;;;;10.95;9.93;;;;;;;38.13;44.92;100843.95;1727185;82;21083;-70
2022/06/29 08:14:12;;;;;;;18.20;10.75;;;;;;;38.02;44.74;100851.80;1732009;82;21056;-70
2022/06/29 08:16:40;;;;;;;13.65;10.03;;;;;;;38.11;44.58;100839.34;1731799;82;21108;-69
2022/06/29 08:19:08;;;;;;;11.28;9.88;;;;;;;38.24;44.10;100846.56;1723812;82;21016;-69
2022/06/29 08:21:35;;;;;;;13.00;9.40;;;;;;;38.15;43.30;100847.20;1724532;82;21047;-69
2022/06/29 08:24:02;;;;;;;10.65;9.58;;;;;;;38.36;42.80;100852.38;1723247;82;21038;-69
2022/06/29 08:26:29;;;;;;;13.45;9.93;;;;;;;38.28;43.10;100845.53;1729869;82;21120;-70
2022/06/29 08:28:56;;;;;;;11.88;9.25;;;;;;;38.27;42.75;100848.75;1730755;82;21177;-69
2022/06/29 08:31:24;;;;;;;15.45;9.38;;;;;;;38.15;42.03;100849.36;1726626;82;21528;-70
2022/06/29 08:33:51;;;;;;;12.07;8.88;;;;;;;37.98;41.62;100839.91;1729833;82;21021;-69
2022/06/29 08:36:18;;;;;;;10.90;9.40;;;;;;;38.50;41.90;100838.88;1731024;82;21016;-69
2022/06/29 08:38:46;;;;;;;14.93;9.10;;;;;;;37.81;42.44;100842.55;1729709;82;21043;-69
2022/06/29 08:41:14;;;;;;;9.80;8.90;;;;;;;37.81;42.92;100839.05;1732001;82;21099;-69
2022/06/29 08:43:43;;;;;;;12.55;8.45;;;;;;;38.43;41.16;100844.44;1732540;82;20996;-69
2022/06/29 08:46:13;;;;;;;9.65;8.35;;;;;;;38.45;40.77;100843.66;1731361;82;21064;-69
2022/06/29 08:48:40;;;;;;;13.32;8.75;;;;;;;38.68;40.50;100826.54;1727270;82;21071;-69
2022/06/29 08:51:11;;;;;;;12.82;8.45;;;;;;;38.42;41.19;100842.80;1718306;82;21054;-70
2022/06/29 08:53:41;;;;;;;9.00;8.10;;;;;;;38.22;40.46;100843.30;1736824;82;21070;-70
2022/06/29 08:56:09;;;;;;;9.88;8.48;;;;;;;38.22;40.83;100839.78;1749247;81;21111;-72
2022/06/29 08:58:38;;;;;;;12.25;8.25;;;;;;;38.30;40.79;100829.16;1749863;82;21130;-71
2022/06/29 09:01:05;;;;;;;10.03;8.08;;;;;;;39.05;42.75;100830.56;1724818;82;21073;-71
2022/06/29 09:03:34;;;;;;;9.50;8.50;;;;;;;36.91;41.82;100837.20;1748469;82;21027;-71
2022/06/29 09:06:03;;;;;;;12.33;8.18;;;;;;;37.05;42.92;100828.38;1746268;82;21078;-71
2022/06/29 09:08:32;;;;;;;11.35;7.95;;;;;;;38.60;39.56;100830.19;1750325;81;21066;-71
2022/06/29 09:11:22;;;;;;;9.68;7.95;;;;;;;38.81;39.48;100843.39;1749024;81;21047;-71
2022/06/29 09:14:14;;;;;;;8.80;7.75;;;;;;;36.98;41.10;100843.78;1745217;82;21046;-71
2022/06/29 09:17:03;;;;;;;9.38;7.72;;;;;;;38.04;39.72;100842.13;1749531;81;21517;-71
2022/06/29 09:19:38;;;;;;;8.90;8.03;;;;;;;38.49;39.79;100835.92;1749316;82;21565;-71
2022/06/29 09:22:06;;;;;;;10.23;8.18;;;;;;;38.93;38.88;100846.79;1747868;82;21070;-70
2022/06/29 09:24:34;;;;;;;14.10;8.73;;;;;;;38.56;39.68;100847.34;1752471;81;21035;-71
2022/06/29 09:27:08;;;;;;;9.43;8.40;;;;;;;38.95;39.32;100846.55;1749951;81;21105;-72
2022/06/29 09:29:41;;;;;;;10.05;8.25;;;;;;;38.91;38.40;100844.07;1750319;81;21086;-69
2022/06/29 09:32:13;;;;;;;9.15;8.33;;;;;;;38.95;37.99;100837.13;1753314;81;21074;-70
2022/06/29 09:34:49;;;;;;;14.90;8.25;;;;;;;39.66;37.58;100858.26;1753059;81;20995;-71
2022/06/29 09:37:22;;;;;;;9.28;8.10;;;;;;;38.31;38.70;100830.27;1749748;82;20980;-71
2022/06/29 09:39:53;;;;;;;8.68;7.97;;;;;;;38.92;39.32;100827.68;1749408;81;21022;-70
2022/06/29 09:42:23;;;;;;;8.80;7.78;;;;;;;39.14;38.11;100832.30;1750462;81;21186;-70
2022/06/29 09:44:51;;;;;;;9.88;8.05;;;;;;;38.98;38.29;100824.56;1728631;81;21105;-71
2022/06/29 09:47:22;;;;;;;12.00;9.10;;;;;;;39.20;38.09;100828.07;1748305;81;21479;-70
2022/06/29 09:49:59;;;;;;;9.95;8.00;;;;;;;38.72;38.97;100816.10;1744645;81;21000;-71
2022/06/29 09:52:26;;;;;;;11.68;8.00;;;;;;;39.27;38.88;100827.87;1715973;82;21065;-71
2022/06/29 09:54:59;;;;;;;12.80;8.20;;;;;;;38.95;38.41;100820.97;1725263;83;21526;-71
2022/06/29 09:57:31;;;;;;;8.63;7.58;;;;;;;39.21;37.49;100826.98;1725038;83;21034;-70
2022/06/29 10:02:55;;;;;;;9.20;7.90;;;;;;;39.49;37.63;100821.69;1702261;83;21062;-70
2022/06/29 10:05:54;;;;;;;9.28;8.38;;;;;;;39.32;37.72;100823.91;1719192;83;21090;-72
2022/06/29 10:07:58;;;;;;;8.63;7.83;;;;;;;39.74;37.24;100823.82;1720261;83;21043;-71
2022/06/29 10:10:27;;;;;;;9.73;7.65;;;;;;;39.73;37.66;100826.25;1717695;83;21027;-72
2022/06/29 10:16:08;;;;;;;9.23;8.28;;;;;;;38.39;39.10;100825.81;1718380;83;21046;-71
2022/06/29 10:19:08;;;;;;;8.78;7.90;;;;;;;38.27;38.87;100825.89;1720711;83;21046;-71
2022/06/29 10:21:35;;;;;;;9.98;8.38;;;;;;;39.11;38.42;100828.75;1719375;83;21054;-70
2022/06/29 10:24:03;;;;;;;12.23;7.90;;;;;;;39.07;38.21;100827.09;1719611;83;21102;-71
2022/06/29 10:26:37;;;;;;;9.78;8.03;;;;;;;39.65;37.48;100831.55;1719345;83;21011;-71
2022/06/29 10:29:18;;;;;;;9.03;8.10;;;;;;;39.14;38.68;100827.73;1716103;83;21155;-71
2022/06/29 10:31:56;;;;;;;10.90;7.92;;;;;;;38.98;38.32;100821.33;1751423;82;21523;-71
2022/06/29 10:34:41;;;;;;;13.38;8.50;;;;;;;39.40;38.06;100832.88;1748173;81;21523;-71
2022/06/29 10:37:11;;;;;;;10.15;8.33;;;;;;;39.20;38.42;100830.77;1749563;82;21074;-71
2022/06/29 10:39:50;;;;;;;9.08;8.25;;;;;;;40.04;37.63;100834.10;1746254;82;21637;-71
2022/06/29 10:45:27;;;;;;;12.60;8.05;;;;;;;40.00;36.80;100826.25;1743809;82;21079;-72
2022/06/29 10:48:03;;;;;;;10.90;8.28;;;;;;;40.15;37.01;100837.69;1747041;82;21577;-76
2022/06/29 10:50:30;;;;;;;10.43;8.08;;;;;;;39.82;36.98;100827.40;1746373;82;21554;-75
2022/06/29 10:53:04;;;;;;;10.10;7.50;;;;;;;40.46;36.84;100827.98;1748109;82;21604;-77
2022/06/29 10:55:34;;;;;;;8.78;7.87;;;;;;;40.76;36.17;100837.39;1746916;82;21062;-76
2022/06/29 10:58:03;;;;;;;8.90;8.00;;;;;;;40.03;36.21;100831.14;1748878;81;21586;-76
2022/06/29 11:00:41;;;;;;;9.53;8.58;;;;;;;40.03;37.74;100822.52;1749863;81;21015;-77
2022/06/29 11:03:22;;;;;;;9.60;8.13;;;;;;;39.81;36.85;100831.98;1749427;82;21050;-76
2022/06/29 11:17:01;;;;;;;12.73;8.45;;;;;;;38.09;38.53;100824.80;1749139;82;21026;-78
2022/06/29 11:19:37;;;;;;;9.75;8.53;;;;;;;38.50;38.42;100814.67;1750425;81;21047;-77
2022/06/29 11:22:13;;;;;;;10.93;9.00;;;;;;;38.90;38.15;100810.16;1748546;81;21066;-78
2022/06/29 11:24:59;;;;;;;9.20;8.40;;;;;;;38.61;38.83;100812.47;1747648;82;21535;-77
2022/06/29 11:27:39;;;;;;;10.72;8.78;;;;;;;39.01;37.72;100807.39;1749448;81;21051;-78
2022/06/29 11:30:15;;;;;;;10.13;8.45;;;;;;;39.54;38.57;100812.30;1749566;82;21042;-78
2022/06/29 11:32:45;;;;;;;9.83;8.63;;;;;;;39.67;37.30;100815.95;1748573;81;21042;-77
2022/06/29 11:35:17;;;;;;;10.15;8.13;;;;;;;39.75;37.52;100801.20;1752963;82;21074;-77
2022/06/29 11:38:01;;;;;;;10.63;8.50;;;;;;;40.04;36.32;100803.90;1747962;81;21058;-76
2022/06/29 11:40:41;;;;;;;10.10;8.10;;;;;;;40.32;35.93;100799.30;1747159;82;21042;-77
2022/06/29 11:43:16;;;;;;;11.50;8.80;;;;;;;39.96;36.24;100803.03;1748927;82;21003;-78
2022/06/29 11:45:57;;;;;;;9.30;8.40;;;;;;;39.98;35.69;100798.19;1748796;82;21123;-77
2022/06/29 11:48:27;;;;;;;9.58;8.58;;;;;;;40.10;37.08;100794.52;1744547;81;21511;-76